createdAt,value
2023-02-20T00:02:20.231Z,5.50
2023-02-20T00:04:51.640Z,5.57
2023-02-20T00:07:23.035Z,5.53
2023-02-20T00:09:54.303Z,5.55
2023-02-20T00:12:25.572Z,5.55
2023-02-20T00:14:56.823Z,5.52
2023-02-20T00:17:28.431Z,5.59
2023-02-20T00:19:59.726Z,5.59
2023-02-20T00:22:30.981Z,5.45
2023-02-20T00:25:02.319Z,5.64
2023-02-20T00:27:33.598Z,5.65
2023-02-20T00:30:05.710Z,5.67
2023-02-20T00:32:37.118Z,5.68
2023-02-20T00:35:12.577Z,5.68
2023-02-20T00:37:44.177Z,5.67
2023-02-20T00:40:17.565Z,5.71
2023-02-20T00:42:49.249Z,5.62
2023-02-20T00:45:20.785Z,5.65
2023-02-20T00:47:52.108Z,5.68
2023-02-20T00:50:23.385Z,5.75
2023-02-20T00:52:54.734Z,5.78
2023-02-20T00:55:25.987Z,5.72
2023-02-20T00:57:57.293Z,5.73
2023-02-20T01:00:30.137Z,5.82
2023-02-20T01:03:01.587Z,5.83
2023-02-20T01:05:33.118Z,5.76
2023-02-20T01:08:04.472Z,5.75
2023-02-20T01:10:35.749Z,5.87
2023-02-20T01:13:07.110Z,5.85
2023-02-20T01:15:38.382Z,5.72
2023-02-20T01:18:09.667Z,5.84
2023-02-20T01:20:40.936Z,5.78
2023-02-20T01:23:12.229Z,5.80
2023-02-20T01:25:43.498Z,5.79
2023-02-20T01:28:14.785Z,5.68
2023-02-20T01:30:46.147Z,5.72
2023-02-20T01:33:17.423Z,5.66
2023-02-20T01:35:49.679Z,5.63
2023-02-20T01:38:20.940Z,5.59
2023-02-20T01:40:52.209Z,5.59
2023-02-20T01:43:23.544Z,5.61
2023-02-20T01:45:54.790Z,5.67
2023-02-20T01:48:26.101Z,5.58
2023-02-20T01:50:59.421Z,5.65
2023-02-20T01:53:31.292Z,5.72
2023-02-20T01:56:07.472Z,5.84
2023-02-20T01:58:46.614Z,5.86
2023-02-20T02:01:18.400Z,5.80
2023-02-20T02:03:57.566Z,5.84
2023-02-20T02:06:29.580Z,5.88
2023-02-20T02:09:12.925Z,5.88
2023-02-20T02:11:44.650Z,5.61
2023-02-20T02:14:16.223Z,5.71
2023-02-20T02:17:06.568Z,5.86
2023-02-20T02:20:10.229Z,5.87
2023-02-20T02:22:47.330Z,5.88
2023-02-20T02:25:53.298Z,5.93
2023-02-20T02:28:50.634Z,5.89
2023-02-20T02:31:36.303Z,6.00
2023-02-20T02:35:04.097Z,6.01
2023-02-20T02:37:48.302Z,6.04
2023-02-20T02:40:43.676Z,6.08
2023-02-20T02:43:17.813Z,6.04
2023-02-20T02:46:00.360Z,6.07
2023-02-20T02:48:53.959Z,6.18
2023-02-20T02:51:29.635Z,6.13
2023-02-20T02:54:17.377Z,6.24
2023-02-20T02:56:48.984Z,6.24
2023-02-20T02:59:29.806Z,6.18
2023-02-20T03:02:06.059Z,6.30
2023-02-20T03:04:38.173Z,6.32
2023-02-20T03:07:15.841Z,6.30
2023-02-20T03:09:53.114Z,6.33
2023-02-20T03:12:26.751Z,6.22
2023-02-20T03:15:35.260Z,6.38
2023-02-20T03:18:29.653Z,6.28
2023-02-20T03:21:05.312Z,6.41
2023-02-20T03:23:41.753Z,6.42
2023-02-20T03:26:22.323Z,6.32
2023-02-20T03:28:58.974Z,6.44
2023-02-20T03:31:37.257Z,6.47
2023-02-20T03:34:33.312Z,6.35
2023-02-20T03:37:39.418Z,6.45
2023-02-20T03:40:32.064Z,6.44
2023-02-20T03:43:28.081Z,6.24
2023-02-20T03:46:13.122Z,6.30
2023-02-20T03:48:50.623Z,6.36
2023-02-20T03:51:23.342Z,6.41
2023-02-20T03:53:55.442Z,6.48
2023-02-20T03:56:32.742Z,6.52
2023-02-20T03:59:12.128Z,6.46
2023-02-20T04:01:47.313Z,6.59
2023-02-20T04:04:26.214Z,6.54
2023-02-20T04:06:59.681Z,6.49
2023-02-20T04:09:34.689Z,6.46
2023-02-20T04:12:15.989Z,6.37
2023-02-20T04:14:49.898Z,6.39
2023-02-20T04:17:27.520Z,6.34
2023-02-20T04:19:58.818Z,6.25
2023-02-20T04:22:35.802Z,6.17
2023-02-20T04:25:27.135Z,6.04
2023-02-20T04:27:58.595Z,6.02
2023-02-20T04:30:30.036Z,5.98
2023-02-20T04:33:01.406Z,5.95
2023-02-20T04:35:32.728Z,5.90
2023-02-20T04:38:04.124Z,5.90
2023-02-20T04:40:35.696Z,5.87
2023-02-20T04:43:07.109Z,5.79
2023-02-20T04:45:38.488Z,5.86
2023-02-20T04:48:09.751Z,5.86
2023-02-20T04:50:41.256Z,5.84
2023-02-20T04:53:12.548Z,5.80
2023-02-20T04:55:43.827Z,5.66
2023-02-20T04:58:15.320Z,5.74
2023-02-20T05:00:46.603Z,5.71
2023-02-20T05:03:17.859Z,5.67
2023-02-20T05:05:49.218Z,5.53
2023-02-20T05:08:20.481Z,5.58
2023-02-20T05:10:51.772Z,5.59
2023-02-20T05:13:23.129Z,5.58
2023-02-20T05:15:54.451Z,5.45
2023-02-20T05:18:28.027Z,5.63
2023-02-20T05:21:18.101Z,5.62
2023-02-20T05:23:49.389Z,5.65
2023-02-20T05:26:21.859Z,5.78
2023-02-20T05:28:53.268Z,5.73
2023-02-20T05:31:24.659Z,5.90
2023-02-20T05:33:56.062Z,5.86
2023-02-20T05:36:27.347Z,5.97
2023-02-20T05:38:58.953Z,5.99
2023-02-20T05:41:30.395Z,5.96
2023-02-20T05:44:01.690Z,6.02
2023-02-20T05:46:33.203Z,5.94
2023-02-20T05:49:04.527Z,5.95
2023-02-20T05:51:35.928Z,6.07
2023-02-20T05:54:07.248Z,6.10
2023-02-20T05:56:42.862Z,6.10
2023-02-20T05:59:18.332Z,6.14
2023-02-20T06:01:55.651Z,6.14
2023-02-20T06:04:27.218Z,6.04
2023-02-20T06:06:58.611Z,6.16
2023-02-20T06:09:29.902Z,6.14
2023-02-20T06:12:01.269Z,6.21
2023-02-20T06:14:32.616Z,6.23
2023-02-20T06:17:03.896Z,6.23
2023-02-20T06:19:35.177Z,6.25
2023-02-20T06:22:06.440Z,6.27
2023-02-20T06:24:37.738Z,6.23
2023-02-20T06:27:09.108Z,6.34
2023-02-20T06:29:40.410Z,6.38
2023-02-20T06:32:11.850Z,6.37
2023-02-20T06:34:46.670Z,6.34
2023-02-20T06:37:17.964Z,6.42
2023-02-20T06:39:49.377Z,6.38
2023-02-20T06:42:20.674Z,6.41
2023-02-20T06:44:51.941Z,6.46
2023-02-20T06:47:23.251Z,6.71
2023-02-20T06:49:54.631Z,6.68
2023-02-20T06:52:25.947Z,6.87
2023-02-20T06:54:57.267Z,6.96
2023-02-20T06:57:28.535Z,6.94
2023-02-20T06:59:59.878Z,6.99
2023-02-20T07:02:31.150Z,7.04
2023-02-20T07:05:04.212Z,7.06
2023-02-20T07:07:35.472Z,7.18
2023-02-20T07:10:07.153Z,7.20
2023-02-20T07:12:39.583Z,7.24
2023-02-20T07:15:12.472Z,7.21
2023-02-20T07:17:43.779Z,7.19
2023-02-20T07:20:15.225Z,7.20
2023-02-20T07:22:51.256Z,7.22
2023-02-20T07:25:22.749Z,7.18
2023-02-20T07:27:54.017Z,7.36
2023-02-20T07:30:25.420Z,7.26
2023-02-20T07:32:56.725Z,7.31
2023-02-20T07:35:27.984Z,7.34
2023-02-20T07:37:59.251Z,7.33
2023-02-20T07:40:30.621Z,7.44
2023-02-20T07:43:02.044Z,7.34
2023-02-20T07:45:33.424Z,7.36
2023-02-20T07:48:04.835Z,7.47
2023-02-20T07:50:36.157Z,7.46
2023-02-20T07:53:07.818Z,7.49
2023-02-20T07:55:39.102Z,7.51
2023-02-20T07:58:10.673Z,7.51
2023-02-20T08:00:41.984Z,7.40
2023-02-20T08:03:13.258Z,7.52
2023-02-20T08:05:49.693Z,7.54
2023-02-20T08:08:24.359Z,7.47
2023-02-20T08:11:03.581Z,7.52
2023-02-20T08:13:39.841Z,7.59
2023-02-20T08:16:11.780Z,7.59
2023-02-20T08:18:43.278Z,7.34
2023-02-20T08:21:14.612Z,7.61
2023-02-20T08:23:46.138Z,7.60
2023-02-20T08:26:17.431Z,7.64
2023-02-20T08:28:50.558Z,7.66
2023-02-20T08:31:31.843Z,7.68
2023-02-20T08:34:03.681Z,7.58
2023-02-20T08:36:35.181Z,7.71
2023-02-20T08:39:06.530Z,7.66
2023-02-20T08:41:45.425Z,7.61
2023-02-20T08:44:16.725Z,7.68
2023-02-20T08:46:49.809Z,7.77
2023-02-20T08:49:22.930Z,7.79
2023-02-20T08:51:56.849Z,7.81
2023-02-20T08:54:28.142Z,7.85
2023-02-20T08:56:59.478Z,7.72
2023-02-20T08:59:31.741Z,7.74
2023-02-20T09:02:03.017Z,7.90
2023-02-20T09:04:34.324Z,7.82
2023-02-20T09:07:05.780Z,7.96
2023-02-20T09:09:37.072Z,7.98
2023-02-20T09:12:09.385Z,8.02
2023-02-20T09:14:40.642Z,7.94
2023-02-20T09:17:12.200Z,8.09
2023-02-20T09:19:43.575Z,7.99
2023-02-20T09:22:16.311Z,8.17
2023-02-20T09:24:47.632Z,8.20
2023-02-20T09:27:19.880Z,8.23
2023-02-20T09:29:51.362Z,8.25
2023-02-20T09:32:22.748Z,8.27
2023-02-20T09:34:54.257Z,8.32
2023-02-20T09:37:25.552Z,8.31
2023-02-20T09:39:56.842Z,8.36
2023-02-20T09:42:47.521Z,8.38
2023-02-20T09:45:22.402Z,8.40
2023-02-20T09:47:58.484Z,8.42
2023-02-20T09:50:51.520Z,8.41
2023-02-20T09:53:38.359Z,8.44
2023-02-20T09:56:16.213Z,8.45
2023-02-20T09:59:18.841Z,8.46
2023-02-20T10:01:57.934Z,8.47
2023-02-20T10:04:49.651Z,8.35
2023-02-20T10:07:38.355Z,8.53
2023-02-20T10:10:26.607Z,8.51
2023-02-20T10:13:37.641Z,8.52
2023-02-20T10:16:31.606Z,8.54
2023-02-20T10:19:23.009Z,8.55
2023-02-20T10:22:11.282Z,8.58
2023-02-20T10:25:02.964Z,8.62
2023-02-20T10:27:48.185Z,8.67
2023-02-20T10:30:35.287Z,8.71
2023-02-20T10:33:09.559Z,8.75
2023-02-20T10:35:52.399Z,8.67
2023-02-20T10:38:29.398Z,8.82
2023-02-20T10:41:11.601Z,8.80
2023-02-20T10:44:01.855Z,8.89
2023-02-20T10:46:49.329Z,8.85
2023-02-20T10:49:38.658Z,8.84
2023-02-20T10:52:29.735Z,8.97
2023-02-20T10:55:20.950Z,8.99
2023-02-20T10:58:03.707Z,8.93
2023-02-20T11:00:42.696Z,8.96
2023-02-20T11:03:53.815Z,9.05
2023-02-20T11:06:31.455Z,9.09
2023-02-20T11:09:02.840Z,9.14
2023-02-20T11:11:42.005Z,9.16
2023-02-20T11:14:42.493Z,9.20
2023-02-20T11:17:20.170Z,9.24
2023-02-20T11:19:57.271Z,9.23
2023-02-20T11:22:46.672Z,9.30
2023-02-20T11:25:30.140Z,9.22
2023-02-20T11:28:17.050Z,9.31
2023-02-20T11:30:57.512Z,9.23
2023-02-20T11:33:32.907Z,9.34
2023-02-20T11:36:20.315Z,9.36
2023-02-20T11:39:03.523Z,9.43
2023-02-20T11:41:38.154Z,9.45
2023-02-20T11:44:13.092Z,9.46
2023-02-20T11:46:47.142Z,9.48
2023-02-20T11:49:28.994Z,9.49
2023-02-20T11:52:24.338Z,9.53
2023-02-20T11:55:22.316Z,9.58
2023-02-20T11:57:53.705Z,9.61
2023-02-20T12:00:43.831Z,9.64
2023-02-20T12:03:23.523Z,9.68
2023-02-20T12:05:56.766Z,9.72
2023-02-20T12:08:37.508Z,9.76
2023-02-20T12:11:12.883Z,9.80
2023-02-20T12:13:46.683Z,9.87
2023-02-20T12:16:18.121Z,9.92
2023-02-20T12:18:54.796Z,9.94
2023-02-20T12:22:18.508Z,9.99
2023-02-20T12:25:04.878Z,10.03
2023-02-20T12:27:54.640Z,10.04
2023-02-20T12:30:41.245Z,10.10
2023-02-20T12:33:35.630Z,10.11
2023-02-20T12:36:17.944Z,10.13
2023-02-20T12:39:04.539Z,10.15
2023-02-20T12:41:50.117Z,10.21
2023-02-20T12:44:29.403Z,10.18
2023-02-20T12:47:26.749Z,10.25
2023-02-20T12:50:13.365Z,10.22
2023-02-20T12:53:00.166Z,10.20
2023-02-20T12:55:47.118Z,10.17
2023-02-20T12:58:38.328Z,10.12
2023-02-20T13:01:13.269Z,10.16
2023-02-20T13:03:56.921Z,10.16
2023-02-20T13:06:47.362Z,10.09
2023-02-20T13:09:26.744Z,10.05
2023-02-20T13:12:04.913Z,10.14
2023-02-20T13:14:51.455Z,10.17
2023-02-20T13:17:49.800Z,10.12
2023-02-20T13:20:44.325Z,10.23
2023-02-20T13:23:15.796Z,10.22
2023-02-20T13:25:49.071Z,10.13
2023-02-20T13:28:20.412Z,10.25
2023-02-20T13:31:08.651Z,10.15
2023-02-20T13:33:46.208Z,10.28
2023-02-20T13:36:44.020Z,10.26
2023-02-20T13:39:21.467Z,10.23
2023-02-20T13:41:55.871Z,10.18
2023-02-20T13:44:36.028Z,10.15
2023-02-20T13:47:27.104Z,10.16
2023-02-20T13:50:00.450Z,10.15
2023-02-20T13:52:38.398Z,10.13
2023-02-20T13:55:09.636Z,10.13
2023-02-20T13:57:50.211Z,10.07
2023-02-20T14:00:43.973Z,10.09
2023-02-20T14:03:31.182Z,10.09
2023-02-20T14:06:06.214Z,10.10
2023-02-20T14:08:41.614Z,9.95
2023-02-20T14:11:34.424Z,10.09
2023-02-20T14:14:09.302Z,10.08
2023-02-20T14:16:44.288Z,10.11
2023-02-20T14:19:26.825Z,10.12
2023-02-20T14:22:24.031Z,10.01
2023-02-20T14:25:09.299Z,10.07
2023-02-20T14:27:41.004Z,10.01
2023-02-20T14:30:14.540Z,9.89
2023-02-20T14:32:50.101Z,9.99
2023-02-20T14:35:47.110Z,9.97
2023-02-20T14:38:36.305Z,10.00
2023-02-20T14:41:16.927Z,9.98
2023-02-20T14:43:57.881Z,9.89
2023-02-20T14:46:32.745Z,9.88
2023-02-20T14:49:10.923Z,9.96
2023-02-20T14:51:43.030Z,9.93
2023-02-20T14:54:14.271Z,10.01
2023-02-20T14:56:47.271Z,10.02
2023-02-20T14:59:33.093Z,10.03
2023-02-20T15:02:31.343Z,9.96
2023-02-20T15:05:10.127Z,10.04
2023-02-20T15:07:41.559Z,10.06
2023-02-20T15:10:33.912Z,10.06
2023-02-20T15:13:10.744Z,10.06
2023-02-20T15:15:46.515Z,9.98
2023-02-20T15:18:34.029Z,10.08
2023-02-20T15:21:06.684Z,10.09
2023-02-20T15:23:40.281Z,10.09
2023-02-20T15:26:31.712Z,10.10
2023-02-20T15:29:23.853Z,10.09
2023-02-20T15:31:58.486Z,10.11
2023-02-20T15:34:34.116Z,10.11
2023-02-20T15:37:18.803Z,10.01
2023-02-20T15:39:51.236Z,10.03
2023-02-20T15:42:24.368Z,10.11
2023-02-20T15:44:55.626Z,10.10
2023-02-20T15:47:26.932Z,10.10
2023-02-20T15:49:58.519Z,10.07
2023-02-20T15:52:30.604Z,10.00
2023-02-20T15:55:02.288Z,9.99
2023-02-20T15:57:33.890Z,9.96
2023-02-20T16:00:05.647Z,9.92
2023-02-20T16:02:37.008Z,9.87
2023-02-20T16:05:08.315Z,9.73
2023-02-20T16:07:39.649Z,9.54
2023-02-20T16:10:14.749Z,9.75
2023-02-20T16:12:47.985Z,9.70
2023-02-20T16:15:25.135Z,9.70
2023-02-20T16:17:56.592Z,9.52
2023-02-20T16:20:29.911Z,9.63
2023-02-20T16:23:01.619Z,9.61
2023-02-20T16:25:32.875Z,9.58
2023-02-20T16:28:04.827Z,9.56
2023-02-20T16:30:40.120Z,9.54
2023-02-20T16:33:19.977Z,9.42
2023-02-20T16:35:55.135Z,9.51
2023-02-20T16:38:26.982Z,9.36
2023-02-20T16:41:00.142Z,9.48
2023-02-20T16:43:31.512Z,9.37
2023-02-20T16:46:02.776Z,9.44
2023-02-20T16:48:34.036Z,9.45
2023-02-20T16:51:06.399Z,9.46
2023-02-20T16:53:37.751Z,9.42
2023-02-20T16:56:08.995Z,9.39
2023-02-20T16:58:40.325Z,9.35
2023-02-20T17:01:11.797Z,9.41
2023-02-20T17:03:43.986Z,9.39
2023-02-20T17:06:19.450Z,9.42
2023-02-20T17:08:50.758Z,9.34
2023-02-20T17:11:22.558Z,9.41
2023-02-20T17:13:54.071Z,9.38
2023-02-20T17:16:31.483Z,9.36
2023-02-20T17:19:03.660Z,9.35
2023-02-20T17:21:34.964Z,9.35
2023-02-20T17:24:06.397Z,9.35
2023-02-20T17:26:37.738Z,9.26
2023-02-20T17:29:10.168Z,9.36
2023-02-20T17:31:41.649Z,9.25
2023-02-20T17:34:13.009Z,9.36
2023-02-20T17:36:49.000Z,9.33
2023-02-20T17:39:26.279Z,9.32
2023-02-20T17:42:00.012Z,9.23
2023-02-20T17:44:31.797Z,9.34
2023-02-20T17:47:03.334Z,9.26
2023-02-20T17:49:34.846Z,9.27
2023-02-20T17:52:06.321Z,9.35
2023-02-20T17:54:39.457Z,9.35
2023-02-20T17:57:10.827Z,9.24
2023-02-20T17:59:42.452Z,9.16
2023-02-20T18:02:14.808Z,9.33
2023-02-20T18:04:46.149Z,9.35
2023-02-20T18:07:17.641Z,9.26
2023-02-20T18:09:49.062Z,9.26
2023-02-20T18:12:20.338Z,9.33
2023-02-20T18:14:52.126Z,9.34
2023-02-20T18:17:24.142Z,9.35
2023-02-20T18:19:55.427Z,9.27
2023-02-20T18:22:26.829Z,9.39
2023-02-20T18:24:58.419Z,9.38
2023-02-20T18:27:29.707Z,9.28
2023-02-20T18:30:01.014Z,9.22
2023-02-20T18:32:32.329Z,9.33
2023-02-20T18:35:04.054Z,9.40
2023-02-20T18:37:35.362Z,9.35
2023-02-20T18:40:07.337Z,9.33
2023-02-20T18:42:38.596Z,9.39
2023-02-20T18:45:10.022Z,9.41
2023-02-20T18:47:41.292Z,9.40
2023-02-20T18:50:12.574Z,9.38
2023-02-20T18:52:49.936Z,9.39
2023-02-20T18:55:21.258Z,9.38
2023-02-20T18:57:53.319Z,9.16
2023-02-20T19:00:27.862Z,9.26
2023-02-20T19:03:01.394Z,9.35
2023-02-20T19:05:32.800Z,9.23
2023-02-20T19:08:04.951Z,9.36
2023-02-20T19:10:36.382Z,9.32
2023-02-20T19:13:07.718Z,9.35
2023-02-20T19:15:38.984Z,9.39
2023-02-20T19:18:10.333Z,9.39
2023-02-20T19:20:41.657Z,9.23
2023-02-20T19:23:12.988Z,9.39
2023-02-20T19:25:44.257Z,9.21
2023-02-20T19:28:15.600Z,9.39
2023-02-20T19:30:46.931Z,9.35
2023-02-20T19:33:18.502Z,9.30
2023-02-20T19:35:49.856Z,9.38
2023-02-20T19:38:21.848Z,9.24
2023-02-20T19:40:53.246Z,9.34
2023-02-20T19:43:26.470Z,9.39
2023-02-20T19:45:57.847Z,9.35
2023-02-20T19:48:29.114Z,9.40
2023-02-20T19:51:00.391Z,9.40
2023-02-20T19:53:33.895Z,9.40
2023-02-20T19:56:07.804Z,9.42
2023-02-20T19:58:40.276Z,9.44
2023-02-20T20:01:17.065Z,9.36
2023-02-20T20:03:48.741Z,9.44
2023-02-20T20:06:25.944Z,9.43
2023-02-20T20:09:12.325Z,9.30
2023-02-20T20:11:45.071Z,9.44
2023-02-20T20:14:16.896Z,9.44
2023-02-20T20:16:48.617Z,9.43
2023-02-20T20:19:20.128Z,9.43
2023-02-20T20:21:51.728Z,9.43
2023-02-20T20:24:23.104Z,9.34
2023-02-20T20:26:54.601Z,9.38
2023-02-20T20:29:25.954Z,9.34
2023-02-20T20:31:57.359Z,9.10
2023-02-20T20:34:28.637Z,9.43
2023-02-20T20:37:00.048Z,9.43
2023-02-20T20:39:31.402Z,9.25
2023-02-20T20:42:02.679Z,9.43
2023-02-20T20:44:34.039Z,9.32
2023-02-20T20:47:06.395Z,9.24
2023-02-20T20:49:38.837Z,9.40
2023-02-20T20:52:10.152Z,9.30
2023-02-20T20:54:41.526Z,9.40
2023-02-20T20:57:12.835Z,9.33
2023-02-20T20:59:44.152Z,9.42
2023-02-20T21:02:16.372Z,9.24
2023-02-20T21:04:50.952Z,9.33
2023-02-20T21:07:24.485Z,9.41
2023-02-20T21:09:55.757Z,9.38
2023-02-20T21:12:27.044Z,9.31
2023-02-20T21:14:58.377Z,9.40
2023-02-20T21:17:29.654Z,9.33
2023-02-20T21:20:04.459Z,9.25
2023-02-20T21:22:35.810Z,9.35
2023-02-20T21:25:07.497Z,9.33
2023-02-20T21:27:39.657Z,9.38
2023-02-20T21:30:11.504Z,9.43
2023-02-20T21:32:42.884Z,9.28
2023-02-20T21:35:16.604Z,9.44
2023-02-20T21:37:48.137Z,9.32
2023-02-20T21:40:19.704Z,9.36
2023-02-20T21:43:09.678Z,9.43
2023-02-20T21:45:40.996Z,9.41
2023-02-20T21:48:13.225Z,9.41
2023-02-20T21:50:44.567Z,9.31
2023-02-20T21:53:16.180Z,9.32
2023-02-20T21:55:47.710Z,9.43
2023-02-20T21:58:19.000Z,9.35
2023-02-20T22:00:50.240Z,9.43
2023-02-20T22:03:21.496Z,9.31
2023-02-20T22:05:52.736Z,9.31
2023-02-20T22:08:42.438Z,9.42
2023-02-20T22:11:32.431Z,9.46
2023-02-20T22:14:22.476Z,9.38
2023-02-20T22:17:12.229Z,9.45
2023-02-20T22:20:03.484Z,9.47
2023-02-20T22:22:53.453Z,9.46
2023-02-20T22:25:44.628Z,9.47
2023-02-20T22:28:34.787Z,9.47
2023-02-20T22:31:24.860Z,9.48
2023-02-20T22:34:14.701Z,9.35
2023-02-20T22:37:06.958Z,9.41
2023-02-20T22:39:56.568Z,9.46
2023-02-20T22:42:46.753Z,9.46
2023-02-20T22:45:36.759Z,9.50
2023-02-20T22:48:26.936Z,9.37
2023-02-20T22:51:16.762Z,9.49
2023-02-20T22:54:07.058Z,9.45
2023-02-20T22:56:57.413Z,9.48
2023-02-20T22:59:47.495Z,9.33
2023-02-20T23:02:37.591Z,9.44
2023-02-20T23:05:27.569Z,9.40
2023-02-20T23:08:17.561Z,9.42
2023-02-20T23:11:07.613Z,9.36
2023-02-20T23:13:57.589Z,9.41
2023-02-20T23:16:47.684Z,9.47
2023-02-20T23:19:37.739Z,9.43
2023-02-20T23:22:27.975Z,9.47
2023-02-20T23:25:17.700Z,9.40
2023-02-20T23:28:08.546Z,9.46
2023-02-20T23:30:58.306Z,9.38
2023-02-20T23:33:48.397Z,9.34
2023-02-20T23:36:38.466Z,9.39
2023-02-20T23:39:28.786Z,9.48
2023-02-20T23:42:18.838Z,9.47
2023-02-20T23:45:08.795Z,9.44
2023-02-20T23:47:59.521Z,9.35
2023-02-20T23:50:49.548Z,9.45
2023-02-20T23:53:39.644Z,9.34
2023-02-20T23:56:29.667Z,9.26
2023-02-20T23:59:19.281Z,9.45
